Lennoxtown, United Kingdom
Current Conditions -  °F | °C
As of 8:50 AM on Monday 22 Dec 2014 (Local Time) from EGPF Reporting Station
Light Rain Light Rain  
Wind Chill: 40°   Ceiling: 2400
Heat Index: 45°   Visibility: 6mi
Dew Point: 41°   Wind: 8mph
Humidity: 87%   Direction: 280°W
Pressure: 29.65"   Gusts: NA
Location:  55.97°N, 4.2°W
Report Text: EGPF 220850Z AUTO 28007KT 9999 -RA BKN024/// OVC040/// //////TCU 07/05 Q1004 RERA
Loading
Personal Weather Stations






























Interactive Weather Map New forecast layout! Learn more

10-Day Weather Forecast

Advertisements
Track Severe Weather on mobile